sensor_id;sensor_type;location;lat;lon;timestamp;P1;durP1;ratioP1;P2;durP2;ratioP2
45642;SDS011;31358;46.008;11.144;2022-09-02T00:01:38;3.20;;;1.55;;
45642;SDS011;31358;46.008;11.144;2022-09-02T00:04:17;2.72;;;1.35;;
45642;SDS011;31358;46.008;11.144;2022-09-02T00:06:46;3.28;;;1.20;;
45642;SDS011;31358;46.008;11.144;2022-09-02T00:09:14;2.42;;;1.25;;
45642;SDS011;31358;46.008;11.144;2022-09-02T00:11:44;3.95;;;1.10;;
45642;SDS011;31358;46.008;11.144;2022-09-02T00:14:13;2.67;;;0.95;;
45642;SDS011;31358;46.008;11.144;2022-09-02T00:16:41;3.10;;;1.20;;
45642;SDS011;31358;46.008;11.144;2022-09-02T00:19:15;2.67;;;1.42;;
45642;SDS011;31358;46.008;11.144;2022-09-02T00:21:42;3.38;;;1.25;;
45642;SDS011;31358;46.008;11.144;2022-09-02T00:24:07;4.63;;;1.25;;
45642;SDS011;31358;46.008;11.144;2022-09-02T00:26:33;6.15;;;1.40;;
45642;SDS011;31358;46.008;11.144;2022-09-02T00:28:59;6.88;;;1.13;;
45642;SDS011;31358;46.008;11.144;2022-09-02T00:31:25;3.92;;;1.30;;
45642;SDS011;31358;46.008;11.144;2022-09-02T00:33:52;2.78;;;1.40;;
45642;SDS011;31358;46.008;11.144;2022-09-02T00:36:19;1.77;;;0.95;;
45642;SDS011;31358;46.008;11.144;2022-09-02T00:38:45;2.65;;;1.08;;
45642;SDS011;31358;46.008;11.144;2022-09-02T00:41:11;2.55;;;1.13;;
45642;SDS011;31358;46.008;11.144;2022-09-02T00:46:16;3.22;;;1.20;;
45642;SDS011;31358;46.008;11.144;2022-09-02T00:48:45;2.25;;;1.20;;
45642;SDS011;31358;46.008;11.144;2022-09-02T00:51:31;4.40;;;1.10;;
45642;SDS011;31358;46.008;11.144;2022-09-02T00:54:02;2.55;;;1.17;;
45642;SDS011;31358;46.008;11.144;2022-09-02T00:56:30;6.47;;;1.30;;
45642;SDS011;31358;46.008;11.144;2022-09-02T00:58:57;5.25;;;1.10;;
45642;SDS011;31358;46.008;11.144;2022-09-02T01:01:25;3.35;;;1.65;;
45642;SDS011;31358;46.008;11.144;2022-09-02T01:03:51;2.78;;;1.15;;
45642;SDS011;31358;46.008;11.144;2022-09-02T01:06:21;4.35;;;1.77;;
45642;SDS011;31358;46.008;11.144;2022-09-02T01:08:51;3.75;;;1.30;;
45642;SDS011;31358;46.008;11.144;2022-09-02T01:11:26;4.28;;;1.20;;
45642;SDS011;31358;46.008;11.144;2022-09-02T01:14:02;3.33;;;1.40;;
45642;SDS011;31358;46.008;11.144;2022-09-02T01:16:37;4.45;;;1.30;;
45642;SDS011;31358;46.008;11.144;2022-09-02T01:19:07;6.07;;;1.50;;
45642;SDS011;31358;46.008;11.144;2022-09-02T01:21:37;3.92;;;1.42;;
45642;SDS011;31358;46.008;11.144;2022-09-02T01:24:03;3.20;;;1.48;;
45642;SDS011;31358;46.008;11.144;2022-09-02T01:26:29;3.70;;;1.40;;
45642;SDS011;31358;46.008;11.144;2022-09-02T01:28:56;3.10;;;1.20;;
45642;SDS011;31358;46.008;11.144;2022-09-02T01:31:22;3.33;;;1.42;;
45642;SDS011;31358;46.008;11.144;2022-09-02T01:33:47;3.60;;;1.58;;
45642;SDS011;31358;46.008;11.144;2022-09-02T01:36:13;4.90;;;1.40;;
45642;SDS011;31358;46.008;11.144;2022-09-02T01:38:39;3.50;;;1.45;;
45642;SDS011;31358;46.008;11.144;2022-09-02T01:41:04;4.28;;;1.40;;
45642;SDS011;31358;46.008;11.144;2022-09-02T01:43:30;3.58;;;1.20;;
45642;SDS011;31358;46.008;11.144;2022-09-02T01:45:56;6.45;;;1.38;;
45642;SDS011;31358;46.008;11.144;2022-09-02T01:48:23;1.75;;;1.10;;
45642;SDS011;31358;46.008;11.144;2022-09-02T01:50:51;2.75;;;1.20;;
45642;SDS011;31358;46.008;11.144;2022-09-02T01:53:22;5.30;;;1.75;;
45642;SDS011;31358;46.008;11.144;2022-09-02T01:55:48;4.82;;;1.27;;
45642;SDS011;31358;46.008;11.144;2022-09-02T01:58:14;4.13;;;1.40;;
45642;SDS011;31358;46.008;11.144;2022-09-02T02:00:40;2.70;;;1.17;;
45642;SDS011;31358;46.008;11.144;2022-09-02T02:03:05;4.43;;;1.30;;
45642;SDS011;31358;46.008;11.144;2022-09-02T02:05:31;7.57;;;1.20;;
45642;SDS011;31358;46.008;11.144;2022-09-02T02:07:57;4.93;;;1.55;;
45642;SDS011;31358;46.008;11.144;2022-09-02T02:10:23;5.40;;;1.60;;
45642;SDS011;31358;46.008;11.144;2022-09-02T02:12:49;5.00;;;1.80;;
45642;SDS011;31358;46.008;11.144;2022-09-02T02:15:16;2.80;;;1.20;;
45642;SDS011;31358;46.008;11.144;2022-09-02T02:17:43;3.75;;;1.67;;
45642;SDS011;31358;46.008;11.144;2022-09-02T02:20:09;4.57;;;1.50;;
45642;SDS011;31358;46.008;11.144;2022-09-02T02:22:37;3.47;;;1.77;;
45642;SDS011;31358;46.008;11.144;2022-09-02T02:25:04;2.75;;;1.20;;
45642;SDS011;31358;46.008;11.144;2022-09-02T02:27:30;4.10;;;1.77;;
45642;SDS011;31358;46.008;11.144;2022-09-02T02:29:56;3.58;;;1.35;;
45642;SDS011;31358;46.008;11.144;2022-09-02T02:32:22;4.40;;;1.63;;
45642;SDS011;31358;46.008;11.144;2022-09-02T02:34:50;3.53;;;1.48;;
45642;SDS011;31358;46.008;11.144;2022-09-02T02:37:15;3.00;;;1.40;;
45642;SDS011;31358;46.008;11.144;2022-09-02T02:39:41;4.28;;;1.80;;
45642;SDS011;31358;46.008;11.144;2022-09-02T02:42:08;2.92;;;1.77;;
45642;SDS011;31358;46.008;11.144;2022-09-02T02:44:36;3.90;;;1.92;;
45642;SDS011;31358;46.008;11.144;2022-09-02T02:47:03;6.47;;;1.80;;
45642;SDS011;31358;46.008;11.144;2022-09-02T02:49:29;3.38;;;1.50;;
45642;SDS011;31358;46.008;11.144;2022-09-02T02:51:54;6.22;;;1.75;;
45642;SDS011;31358;46.008;11.144;2022-09-02T02:54:20;8.10;;;2.42;;
45642;SDS011;31358;46.008;11.144;2022-09-02T02:56:46;3.90;;;1.65;;
45642;SDS011;31358;46.008;11.144;2022-09-02T02:59:12;5.28;;;1.50;;
45642;SDS011;31358;46.008;11.144;2022-09-02T03:01:38;4.57;;;2.00;;
45642;SDS011;31358;46.008;11.144;2022-09-02T03:04:05;6.80;;;1.50;;
45642;SDS011;31358;46.008;11.144;2022-09-02T03:06:31;3.10;;;1.70;;
45642;SDS011;31358;46.008;11.144;2022-09-02T03:08:56;3.13;;;1.90;;
45642;SDS011;31358;46.008;11.144;2022-09-02T03:11:24;5.13;;;1.90;;
45642;SDS011;31358;46.008;11.144;2022-09-02T03:13:51;3.28;;;1.65;;
45642;SDS011;31358;46.008;11.144;2022-09-02T03:16:17;4.82;;;2.40;;
45642;SDS011;31358;46.008;11.144;2022-09-02T03:18:44;5.70;;;2.20;;
45642;SDS011;31358;46.008;11.144;2022-09-02T03:21:10;2.67;;;1.60;;
45642;SDS011;31358;46.008;11.144;2022-09-02T03:23:37;3.63;;;1.80;;
45642;SDS011;31358;46.008;11.144;2022-09-02T03:26:10;7.03;;;1.80;;
45642;SDS011;31358;46.008;11.144;2022-09-02T03:28:38;8.05;;;2.58;;
45642;SDS011;31358;46.008;11.144;2022-09-02T03:31:04;3.55;;;1.88;;
45642;SDS011;31358;46.008;11.144;2022-09-02T03:33:30;5.05;;;2.30;;
45642;SDS011;31358;46.008;11.144;2022-09-02T03:35:56;5.55;;;2.25;;
45642;SDS011;31358;46.008;11.144;2022-09-02T03:38:22;6.75;;;2.80;;
45642;SDS011;31358;46.008;11.144;2022-09-02T03:40:47;5.93;;;2.80;;
45642;SDS011;31358;46.008;11.144;2022-09-02T03:43:13;6.68;;;2.63;;
45642;SDS011;31358;46.008;11.144;2022-09-02T03:45:40;3.80;;;2.35;;
45642;SDS011;31358;46.008;11.144;2022-09-02T03:48:06;4.18;;;2.63;;
45642;SDS011;31358;46.008;11.144;2022-09-02T03:50:35;3.80;;;2.25;;
45642;SDS011;31358;46.008;11.144;2022-09-02T03:53:06;8.05;;;3.10;;
45642;SDS011;31358;46.008;11.144;2022-09-02T03:55:32;7.45;;;2.80;;
45642;SDS011;31358;46.008;11.144;2022-09-02T03:58:00;5.30;;;2.60;;
45642;SDS011;31358;46.008;11.144;2022-09-02T04:00:26;5.85;;;2.60;;
45642;SDS011;31358;46.008;11.144;2022-09-02T04:02:57;3.92;;;2.40;;
45642;SDS011;31358;46.008;11.144;2022-09-02T04:05:25;4.72;;;2.75;;
45642;SDS011;31358;46.008;11.144;2022-09-02T04:07:51;5.43;;;2.67;;
45642;SDS011;31358;46.008;11.144;2022-09-02T04:10:17;5.97;;;2.80;;
45642;SDS011;31358;46.008;11.144;2022-09-02T04:12:45;6.32;;;3.30;;
45642;SDS011;31358;46.008;11.144;2022-09-02T04:15:11;5.57;;;4.15;;
45642;SDS011;31358;46.008;11.144;2022-09-02T04:17:38;5.10;;;3.38;;
45642;SDS011;31358;46.008;11.144;2022-09-02T04:20:06;6.03;;;3.58;;
45642;SDS011;31358;46.008;11.144;2022-09-02T04:22:34;7.15;;;4.07;;
45642;SDS011;31358;46.008;11.144;2022-09-02T04:25:00;4.97;;;3.72;;
45642;SDS011;31358;46.008;11.144;2022-09-02T04:27:25;6.40;;;4.50;;
45642;SDS011;31358;46.008;11.144;2022-09-02T04:29:51;5.80;;;4.50;;
45642;SDS011;31358;46.008;11.144;2022-09-02T04:32:17;7.18;;;5.05;;
45642;SDS011;31358;46.008;11.144;2022-09-02T04:34:44;8.38;;;5.68;;
45642;SDS011;31358;46.008;11.144;2022-09-02T04:37:09;8.10;;;5.78;;
45642;SDS011;31358;46.008;11.144;2022-09-02T04:39:37;8.05;;;5.68;;
45642;SDS011;31358;46.008;11.144;2022-09-02T04:42:03;9.23;;;6.88;;
45642;SDS011;31358;46.008;11.144;2022-09-02T04:44:29;8.55;;;5.90;;
45642;SDS011;31358;46.008;11.144;2022-09-02T04:46:55;7.65;;;4.95;;
45642;SDS011;31358;46.008;11.144;2022-09-02T04:49:20;7.15;;;4.43;;
45642;SDS011;31358;46.008;11.144;2022-09-02T04:51:46;6.53;;;4.88;;
45642;SDS011;31358;46.008;11.144;2022-09-02T04:54:12;6.05;;;4.95;;
45642;SDS011;31358;46.008;11.144;2022-09-02T04:56:38;6.60;;;4.43;;
45642;SDS011;31358;46.008;11.144;2022-09-02T04:59:03;7.60;;;4.53;;
45642;SDS011;31358;46.008;11.144;2022-09-02T05:01:32;10.00;;;5.00;;
45642;SDS011;31358;46.008;11.144;2022-09-02T05:03:59;7.85;;;4.47;;
45642;SDS011;31358;46.008;11.144;2022-09-02T05:06:26;7.10;;;5.57;;
45642;SDS011;31358;46.008;11.144;2022-09-02T05:08:53;7.57;;;4.88;;
45642;SDS011;31358;46.008;11.144;2022-09-02T05:11:21;7.43;;;4.38;;
45642;SDS011;31358;46.008;11.144;2022-09-02T05:13:52;5.70;;;4.28;;
45642;SDS011;31358;46.008;11.144;2022-09-02T05:16:20;6.13;;;4.22;;
45642;SDS011;31358;46.008;11.144;2022-09-02T05:18:47;5.75;;;4.50;;
45642;SDS011;31358;46.008;11.144;2022-09-02T05:21:14;5.47;;;3.80;;
45642;SDS011;31358;46.008;11.144;2022-09-02T05:23:40;7.55;;;4.50;;
45642;SDS011;31358;46.008;11.144;2022-09-02T05:26:07;7.10;;;4.13;;
45642;SDS011;31358;46.008;11.144;2022-09-02T05:28:33;5.10;;;3.58;;
45642;SDS011;31358;46.008;11.144;2022-09-02T05:31:03;5.65;;;3.38;;
45642;SDS011;31358;46.008;11.144;2022-09-02T05:33:33;4.63;;;3.45;;
45642;SDS011;31358;46.008;11.144;2022-09-02T05:36:05;4.93;;;3.50;;
45642;SDS011;31358;46.008;11.144;2022-09-02T05:38:31;6.57;;;3.80;;
45642;SDS011;31358;46.008;11.144;2022-09-02T05:40:57;6.75;;;3.60;;
45642;SDS011;31358;46.008;11.144;2022-09-02T05:43:24;7.05;;;4.72;;
45642;SDS011;31358;46.008;11.144;2022-09-02T05:45:50;4.80;;;3.15;;
45642;SDS011;31358;46.008;11.144;2022-09-02T05:48:15;6.47;;;3.75;;
45642;SDS011;31358;46.008;11.144;2022-09-02T05:51:04;6.75;;;3.63;;
45642;SDS011;31358;46.008;11.144;2022-09-02T05:53:30;5.15;;;3.38;;
45642;SDS011;31358;46.008;11.144;2022-09-02T05:55:56;5.88;;;2.88;;
45642;SDS011;31358;46.008;11.144;2022-09-02T05:58:22;5.38;;;3.10;;
45642;SDS011;31358;46.008;11.144;2022-09-02T06:00:48;4.95;;;3.03;;
45642;SDS011;31358;46.008;11.144;2022-09-02T06:03:15;4.45;;;2.47;;
45642;SDS011;31358;46.008;11.144;2022-09-02T06:05:52;5.93;;;3.10;;
45642;SDS011;31358;46.008;11.144;2022-09-02T06:08:21;4.35;;;2.67;;
45642;SDS011;31358;46.008;11.144;2022-09-02T06:10:47;5.03;;;2.78;;
45642;SDS011;31358;46.008;11.144;2022-09-02T06:13:13;5.30;;;2.38;;
45642;SDS011;31358;46.008;11.144;2022-09-02T06:15:42;5.05;;;2.60;;
45642;SDS011;31358;46.008;11.144;2022-09-02T06:18:09;4.35;;;2.35;;
45642;SDS011;31358;46.008;11.144;2022-09-02T06:20:39;4.60;;;2.30;;
45642;SDS011;31358;46.008;11.144;2022-09-02T06:23:05;4.28;;;2.05;;
45642;SDS011;31358;46.008;11.144;2022-09-02T06:25:31;3.22;;;1.70;;
45642;SDS011;31358;46.008;11.144;2022-09-02T06:28:00;4.70;;;2.30;;
45642;SDS011;31358;46.008;11.144;2022-09-02T06:30:26;2.95;;;1.77;;
45642;SDS011;31358;46.008;11.144;2022-09-02T06:32:51;3.47;;;2.13;;
45642;SDS011;31358;46.008;11.144;2022-09-02T06:35:17;2.85;;;1.55;;
45642;SDS011;31358;46.008;11.144;2022-09-02T06:37:42;4.53;;;1.92;;
45642;SDS011;31358;46.008;11.144;2022-09-02T06:40:08;4.38;;;2.20;;
45642;SDS011;31358;46.008;11.144;2022-09-02T06:42:36;6.50;;;2.65;;
45642;SDS011;31358;46.008;11.144;2022-09-02T06:45:01;5.80;;;3.10;;
45642;SDS011;31358;46.008;11.144;2022-09-02T06:47:27;5.65;;;2.30;;
45642;SDS011;31358;46.008;11.144;2022-09-02T06:49:55;7.35;;;3.00;;
45642;SDS011;31358;46.008;11.144;2022-09-02T06:52:21;5.80;;;2.35;;
45642;SDS011;31358;46.008;11.144;2022-09-02T06:54:47;4.15;;;2.40;;
45642;SDS011;31358;46.008;11.144;2022-09-02T06:57:15;5.85;;;2.92;;
45642;SDS011;31358;46.008;11.144;2022-09-02T06:59:41;5.28;;;2.88;;
45642;SDS011;31358;46.008;11.144;2022-09-02T07:02:06;5.18;;;2.75;;
45642;SDS011;31358;46.008;11.144;2022-09-02T07:04:32;5.05;;;2.90;;
45642;SDS011;31358;46.008;11.144;2022-09-02T07:07:16;4.75;;;2.72;;
45642;SDS011;31358;46.008;11.144;2022-09-02T07:09:42;5.20;;;2.80;;
45642;SDS011;31358;46.008;11.144;2022-09-02T07:12:08;7.55;;;3.88;;
45642;SDS011;31358;46.008;11.144;2022-09-02T07:14:38;6.30;;;2.85;;
45642;SDS011;31358;46.008;11.144;2022-09-02T07:17:05;5.47;;;2.78;;
45642;SDS011;31358;46.008;11.144;2022-09-02T07:19:32;6.32;;;2.50;;
45642;SDS011;31358;46.008;11.144;2022-09-02T07:21:58;4.57;;;2.30;;
45642;SDS011;31358;46.008;11.144;2022-09-02T07:24:23;5.90;;;2.90;;
45642;SDS011;31358;46.008;11.144;2022-09-02T07:26:49;5.05;;;2.38;;
45642;SDS011;31358;46.008;11.144;2022-09-02T07:29:16;6.97;;;2.60;;
45642;SDS011;31358;46.008;11.144;2022-09-02T07:31:42;6.30;;;2.42;;
45642;SDS011;31358;46.008;11.144;2022-09-02T07:34:10;6.38;;;2.55;;
45642;SDS011;31358;46.008;11.144;2022-09-02T07:36:37;4.22;;;2.38;;
45642;SDS011;31358;46.008;11.144;2022-09-02T07:39:04;4.28;;;1.90;;
45642;SDS011;31358;46.008;11.144;2022-09-02T07:41:31;3.90;;;2.00;;
45642;SDS011;31358;46.008;11.144;2022-09-02T07:43:57;4.68;;;2.13;;
45642;SDS011;31358;46.008;11.144;2022-09-02T07:46:23;3.88;;;2.20;;
45642;SDS011;31358;46.008;11.144;2022-09-02T07:48:48;5.40;;;2.45;;
45642;SDS011;31358;46.008;11.144;2022-09-02T07:51:15;5.70;;;2.35;;
45642;SDS011;31358;46.008;11.144;2022-09-02T07:53:42;4.25;;;2.20;;
45642;SDS011;31358;46.008;11.144;2022-09-02T07:56:09;7.55;;;2.60;;
45642;SDS011;31358;46.008;11.144;2022-09-02T07:58:37;4.20;;;2.08;;
45642;SDS011;31358;46.008;11.144;2022-09-02T08:01:04;5.03;;;2.08;;
45642;SDS011;31358;46.008;11.144;2022-09-02T08:03:30;5.50;;;1.85;;
45642;SDS011;31358;46.008;11.144;2022-09-02T08:05:55;4.93;;;2.05;;
45642;SDS011;31358;46.008;11.144;2022-09-02T08:08:22;4.43;;;2.10;;
45642;SDS011;31358;46.008;11.144;2022-09-02T08:10:50;4.88;;;2.10;;
45642;SDS011;31358;46.008;11.144;2022-09-02T08:13:16;3.55;;;1.98;;
45642;SDS011;31358;46.008;11.144;2022-09-02T08:15:43;7.22;;;2.30;;
45642;SDS011;31358;46.008;11.144;2022-09-02T08:18:09;5.00;;;2.25;;
45642;SDS011;31358;46.008;11.144;2022-09-02T08:20:35;4.97;;;3.00;;
45642;SDS011;31358;46.008;11.144;2022-09-02T08:23:04;5.82;;;2.20;;
45642;SDS011;31358;46.008;11.144;2022-09-02T08:25:31;5.57;;;2.00;;
45642;SDS011;31358;46.008;11.144;2022-09-02T08:27:57;4.05;;;2.10;;
45642;SDS011;31358;46.008;11.144;2022-09-02T08:30:23;3.55;;;2.15;;
45642;SDS011;31358;46.008;11.144;2022-09-02T08:32:49;7.78;;;2.50;;
45642;SDS011;31358;46.008;11.144;2022-09-02T08:35:14;5.82;;;2.75;;
45642;SDS011;31358;46.008;11.144;2022-09-02T08:37:40;5.45;;;2.08;;
45642;SDS011;31358;46.008;11.144;2022-09-02T08:40:07;5.32;;;2.22;;
45642;SDS011;31358;46.008;11.144;2022-09-02T08:42:45;6.13;;;2.15;;
45642;SDS011;31358;46.008;11.144;2022-09-02T08:47:49;5.18;;;2.20;;
45642;SDS011;31358;46.008;11.144;2022-09-02T08:50:22;5.60;;;2.47;;
45642;SDS011;31358;46.008;11.144;2022-09-02T08:55:21;4.07;;;2.15;;
45642;SDS011;31358;46.008;11.144;2022-09-02T08:57:51;3.70;;;2.42;;
45642;SDS011;31358;46.008;11.144;2022-09-02T09:00:20;6.32;;;2.47;;
45642;SDS011;31358;46.008;11.144;2022-09-02T09:05:24;5.00;;;2.05;;
45642;SDS011;31358;46.008;11.144;2022-09-02T09:11:07;4.50;;;1.75;;
45642;SDS011;31358;46.008;11.144;2022-09-02T09:13:41;5.60;;;2.08;;
45642;SDS011;31358;46.008;11.144;2022-09-02T09:19:11;5.57;;;2.05;;
45642;SDS011;31358;46.008;11.144;2022-09-02T09:21:41;4.22;;;1.80;;
45642;SDS011;31358;46.008;11.144;2022-09-02T09:24:12;3.83;;;1.58;;
45642;SDS011;31358;46.008;11.144;2022-09-02T09:26:51;4.88;;;1.85;;
45642;SDS011;31358;46.008;11.144;2022-09-02T09:29:18;5.93;;;1.65;;
45642;SDS011;31358;46.008;11.144;2022-09-02T09:31:43;4.28;;;1.55;;
45642;SDS011;31358;46.008;11.144;2022-09-02T09:34:15;3.42;;;1.60;;
45642;SDS011;31358;46.008;11.144;2022-09-02T09:41:57;3.03;;;1.38;;
45642;SDS011;31358;46.008;11.144;2022-09-02T09:47:00;2.72;;;1.73;;
45642;SDS011;31358;46.008;11.144;2022-09-02T09:49:30;5.15;;;2.63;;
45642;SDS011;31358;46.008;11.144;2022-09-02T09:51:57;2.47;;;1.38;;
45642;SDS011;31358;46.008;11.144;2022-09-02T09:54:24;3.28;;;1.70;;
45642;SDS011;31358;46.008;11.144;2022-09-02T09:56:51;2.67;;;1.30;;
45642;SDS011;31358;46.008;11.144;2022-09-02T10:02:18;4.63;;;1.52;;
45642;SDS011;31358;46.008;11.144;2022-09-02T10:04:49;4.82;;;1.60;;
45642;SDS011;31358;46.008;11.144;2022-09-02T10:10:24;2.80;;;1.63;;
45642;SDS011;31358;46.008;11.144;2022-09-02T10:12:52;4.70;;;1.75;;
45642;SDS011;31358;46.008;11.144;2022-09-02T10:16:07;4.57;;;1.60;;
45642;SDS011;31358;46.008;11.144;2022-09-02T10:18:25;3.33;;;1.77;;
45642;SDS011;31358;46.008;11.144;2022-09-02T10:21:00;3.13;;;1.45;;
45642;SDS011;31358;46.008;11.144;2022-09-02T10:24:37;2.05;;;1.38;;
45642;SDS011;31358;46.008;11.144;2022-09-02T10:26:53;3.03;;;1.55;;
45642;SDS011;31358;46.008;11.144;2022-09-02T10:37:11;4.70;;;1.50;;
45642;SDS011;31358;46.008;11.144;2022-09-02T10:42:38;6.85;;;1.90;;
45642;SDS011;31358;46.008;11.144;2022-09-02T10:45:30;3.75;;;1.40;;
45642;SDS011;31358;46.008;11.144;2022-09-02T10:56:32;4.85;;;1.40;;
45642;SDS011;31358;46.008;11.144;2022-09-02T10:59:12;2.92;;;1.30;;
45642;SDS011;31358;46.008;11.144;2022-09-02T11:01:52;4.95;;;1.58;;
45642;SDS011;31358;46.008;11.144;2022-09-02T11:07:01;2.38;;;1.50;;
45642;SDS011;31358;46.008;11.144;2022-09-02T11:12:17;5.22;;;1.63;;
45642;SDS011;31358;46.008;11.144;2022-09-02T11:17:34;4.35;;;1.48;;
45642;SDS011;31358;46.008;11.144;2022-09-02T11:26:03;2.85;;;1.52;;
45642;SDS011;31358;46.008;11.144;2022-09-02T11:34:48;3.63;;;1.50;;
45642;SDS011;31358;46.008;11.144;2022-09-02T11:52:04;4.00;;;1.52;;
45642;SDS011;31358;46.008;11.144;2022-09-02T11:54:40;3.88;;;1.55;;
45642;SDS011;31358;46.008;11.144;2022-09-02T11:57:11;3.25;;;1.33;;
45642;SDS011;31358;46.008;11.144;2022-09-02T12:02:33;3.85;;;1.58;;
45642;SDS011;31358;46.008;11.144;2022-09-02T12:07:53;3.72;;;1.40;;
45642;SDS011;31358;46.008;11.144;2022-09-02T12:13:09;2.55;;;1.35;;
45642;SDS011;31358;46.008;11.144;2022-09-02T12:18:37;3.40;;;1.25;;
45642;SDS011;31358;46.008;11.144;2022-09-02T12:21:07;3.63;;;1.20;;
45642;SDS011;31358;46.008;11.144;2022-09-02T12:26:13;4.57;;;1.75;;
45642;SDS011;31358;46.008;11.144;2022-09-02T12:28:41;4.18;;;1.13;;
45642;SDS011;31358;46.008;11.144;2022-09-02T12:31:12;4.47;;;1.08;;
45642;SDS011;31358;46.008;11.144;2022-09-02T12:33:57;3.67;;;1.25;;
45642;SDS011;31358;46.008;11.144;2022-09-02T12:50:04;11.45;;;1.73;;
45642;SDS011;31358;46.008;11.144;2022-09-02T12:52:44;4.15;;;1.23;;
45642;SDS011;31358;46.008;11.144;2022-09-02T12:55:17;3.50;;;1.52;;
45642;SDS011;31358;46.008;11.144;2022-09-02T12:57:50;2.92;;;1.10;;
45642;SDS011;31358;46.008;11.144;2022-09-02T13:01:20;5.60;;;1.60;;
45642;SDS011;31358;46.008;11.144;2022-09-02T13:03:28;2.80;;;1.70;;
45642;SDS011;31358;46.008;11.144;2022-09-02T13:28:10;2.40;;;1.20;;
45642;SDS011;31358;46.008;11.144;2022-09-02T13:30:56;5.18;;;1.75;;
45642;SDS011;31358;46.008;11.144;2022-09-02T13:33:40;2.35;;;1.13;;
45642;SDS011;31358;46.008;11.144;2022-09-02T13:36:07;2.33;;;1.27;;
45642;SDS011;31358;46.008;11.144;2022-09-02T13:38:33;3.33;;;1.52;;
45642;SDS011;31358;46.008;11.144;2022-09-02T13:40:59;2.80;;;1.55;;
45642;SDS011;31358;46.008;11.144;2022-09-02T13:43:26;1.98;;;1.10;;
45642;SDS011;31358;46.008;11.144;2022-09-02T13:45:52;3.90;;;1.67;;
45642;SDS011;31358;46.008;11.144;2022-09-02T13:48:27;4.07;;;1.35;;
45642;SDS011;31358;46.008;11.144;2022-09-02T13:51:00;2.53;;;1.25;;
45642;SDS011;31358;46.008;11.144;2022-09-02T13:53:38;3.88;;;1.13;;
45642;SDS011;31358;46.008;11.144;2022-09-02T13:56:10;3.35;;;1.40;;
45642;SDS011;31358;46.008;11.144;2022-09-02T13:58:51;2.42;;;1.33;;
45642;SDS011;31358;46.008;11.144;2022-09-02T14:01:22;2.45;;;1.10;;
45642;SDS011;31358;46.008;11.144;2022-09-02T14:03:52;4.40;;;1.50;;
45642;SDS011;31358;46.008;11.144;2022-09-02T14:06:21;3.28;;;1.88;;
45642;SDS011;31358;46.008;11.144;2022-09-02T14:08:51;4.72;;;1.58;;
45642;SDS011;31358;46.008;11.144;2022-09-02T14:11:20;3.42;;;1.40;;
45642;SDS011;31358;46.008;11.144;2022-09-02T14:13:47;3.45;;;1.50;;
45642;SDS011;31358;46.008;11.144;2022-09-02T14:16:30;2.85;;;1.40;;
45642;SDS011;31358;46.008;11.144;2022-09-02T14:21:45;4.90;;;1.50;;
45642;SDS011;31358;46.008;11.144;2022-09-02T14:24:18;6.18;;;1.42;;
45642;SDS011;31358;46.008;11.144;2022-09-02T14:26:46;3.40;;;1.48;;
45642;SDS011;31358;46.008;11.144;2022-09-02T14:29:16;7.00;;;1.48;;
45642;SDS011;31358;46.008;11.144;2022-09-02T14:31:44;1.85;;;1.00;;
45642;SDS011;31358;46.008;11.144;2022-09-02T14:36:56;2.40;;;1.27;;
45642;SDS011;31358;46.008;11.144;2022-09-02T14:39:22;5.22;;;1.70;;
45642;SDS011;31358;46.008;11.144;2022-09-02T14:41:48;2.58;;;1.10;;
45642;SDS011;31358;46.008;11.144;2022-09-02T14:44:28;3.33;;;1.35;;
45642;SDS011;31358;46.008;11.144;2022-09-02T14:47:00;2.63;;;1.05;;
45642;SDS011;31358;46.008;11.144;2022-09-02T14:49:33;2.55;;;1.15;;
45642;SDS011;31358;46.008;11.144;2022-09-02T14:52:25;1.70;;;1.05;;
45642;SDS011;31358;46.008;11.144;2022-09-02T14:54:54;2.22;;;1.20;;
45642;SDS011;31358;46.008;11.144;2022-09-02T14:59:49;2.63;;;1.30;;
45642;SDS011;31358;46.008;11.144;2022-09-02T15:02:22;4.07;;;1.52;;
45642;SDS011;31358;46.008;11.144;2022-09-02T15:04:54;3.67;;;1.10;;
45642;SDS011;31358;46.008;11.144;2022-09-02T15:07:22;2.60;;;1.15;;
45642;SDS011;31358;46.008;11.144;2022-09-02T15:09:48;1.77;;;1.00;;
45642;SDS011;31358;46.008;11.144;2022-09-02T15:12:37;5.50;;;1.30;;
45642;SDS011;31358;46.008;11.144;2022-09-02T15:15:03;2.58;;;1.30;;
45642;SDS011;31358;46.008;11.144;2022-09-02T15:17:29;2.95;;;1.35;;
45642;SDS011;31358;46.008;11.144;2022-09-02T15:19:55;2.00;;;1.40;;
45642;SDS011;31358;46.008;11.144;2022-09-02T15:22:20;2.67;;;1.48;;
45642;SDS011;31358;46.008;11.144;2022-09-02T15:24:46;3.45;;;1.20;;
45642;SDS011;31358;46.008;11.144;2022-09-02T15:27:13;5.13;;;1.70;;
45642;SDS011;31358;46.008;11.144;2022-09-02T15:29:39;4.07;;;1.40;;
45642;SDS011;31358;46.008;11.144;2022-09-02T15:32:05;3.40;;;1.45;;
45642;SDS011;31358;46.008;11.144;2022-09-02T15:34:31;3.33;;;1.40;;
45642;SDS011;31358;46.008;11.144;2022-09-02T15:36:58;4.07;;;1.40;;
45642;SDS011;31358;46.008;11.144;2022-09-02T15:39:24;5.70;;;1.50;;
45642;SDS011;31358;46.008;11.144;2022-09-02T15:41:51;7.93;;;1.42;;
45642;SDS011;31358;46.008;11.144;2022-09-02T15:44:19;5.38;;;1.88;;
45642;SDS011;31358;46.008;11.144;2022-09-02T15:46:52;3.10;;;1.35;;
45642;SDS011;31358;46.008;11.144;2022-09-02T15:49:19;2.67;;;1.40;;
45642;SDS011;31358;46.008;11.144;2022-09-02T15:51:45;4.32;;;1.58;;
45642;SDS011;31358;46.008;11.144;2022-09-02T15:54:14;8.32;;;1.40;;
45642;SDS011;31358;46.008;11.144;2022-09-02T15:56:42;5.22;;;1.83;;
45642;SDS011;31358;46.008;11.144;2022-09-02T15:59:10;3.10;;;1.23;;
45642;SDS011;31358;46.008;11.144;2022-09-02T16:01:37;3.55;;;1.35;;
45642;SDS011;31358;46.008;11.144;2022-09-02T16:04:05;3.83;;;1.60;;
45642;SDS011;31358;46.008;11.144;2022-09-02T16:06:32;4.13;;;1.70;;
45642;SDS011;31358;46.008;11.144;2022-09-02T16:09:00;6.85;;;1.85;;
45642;SDS011;31358;46.008;11.144;2022-09-02T16:11:27;4.90;;;1.70;;
45642;SDS011;31358;46.008;11.144;2022-09-02T16:13:53;3.75;;;1.65;;
45642;SDS011;31358;46.008;11.144;2022-09-02T16:16:19;7.18;;;1.95;;
45642;SDS011;31358;46.008;11.144;2022-09-02T16:18:48;4.10;;;1.40;;
45642;SDS011;31358;46.008;11.144;2022-09-02T16:21:15;4.00;;;1.73;;
45642;SDS011;31358;46.008;11.144;2022-09-02T16:23:42;4.70;;;1.80;;
45642;SDS011;31358;46.008;11.144;2022-09-02T16:28:36;5.20;;;2.08;;
45642;SDS011;31358;46.008;11.144;2022-09-02T16:31:04;5.80;;;2.00;;
45642;SDS011;31358;46.008;11.144;2022-09-02T16:33:31;8.07;;;1.80;;
45642;SDS011;31358;46.008;11.144;2022-09-02T16:35:57;5.60;;;2.22;;
45642;SDS011;31358;46.008;11.144;2022-09-02T16:38:23;3.78;;;1.58;;
45642;SDS011;31358;46.008;11.144;2022-09-02T16:40:54;3.78;;;1.60;;
45642;SDS011;31358;46.008;11.144;2022-09-02T16:43:21;6.90;;;2.28;;
45642;SDS011;31358;46.008;11.144;2022-09-02T16:45:47;4.95;;;1.60;;
45642;SDS011;31358;46.008;11.144;2022-09-02T16:48:21;4.53;;;2.05;;
45642;SDS011;31358;46.008;11.144;2022-09-02T16:50:47;5.65;;;1.70;;
45642;SDS011;31358;46.008;11.144;2022-09-02T16:53:13;4.38;;;2.20;;
45642;SDS011;31358;46.008;11.144;2022-09-02T16:55:40;4.72;;;1.80;;
45642;SDS011;31358;46.008;11.144;2022-09-02T16:58:07;4.40;;;2.22;;
45642;SDS011;31358;46.008;11.144;2022-09-02T17:00:35;3.70;;;2.20;;
45642;SDS011;31358;46.008;11.144;2022-09-02T17:03:05;5.47;;;2.00;;
45642;SDS011;31358;46.008;11.144;2022-09-02T17:05:31;3.30;;;1.63;;
45642;SDS011;31358;46.008;11.144;2022-09-02T17:07:57;4.55;;;2.10;;